TimeCDT,TemperatureF,Dew PointF,Humidity,Sea Level PressureIn,VisibilityMPH,Wind Direction,Wind SpeedMPH,Gust SpeedMPH,PrecipitationIn,Events,Conditions,WindDirDegrees,DateUTC
12:15 AM,73.4,64.4,73,29.86,10.0,Calm,Calm,-,N/A,,Clear,0,2013-09-25 05:15:00
12:35 AM,73.4,64.4,73,29.86,10.0,Calm,Calm,-,N/A,,Clear,0,2013-09-25 05:35:00
12:55 AM,73.4,66.2,78,29.86,10.0,Calm,Calm,-,N/A,,Clear,0,2013-09-25 05:55:00
1:15 AM,73.4,64.4,73,29.86,10.0,Calm,Calm,-,N/A,,Clear,0,2013-09-25 06:15:00
1:35 AM,73.4,64.4,73,29.86,10.0,Calm,Calm,-,N/A,,Clear,0,2013-09-25 06:35:00
1:55 AM,71.6,64.4,78,29.86,10.0,Calm,Calm,-,N/A,,Clear,0,2013-09-25 06:55:00
2:15 AM,73.4,62.6,69,29.86,10.0,Calm,Calm,-,N/A,,Clear,0,2013-09-25 07:15:00
2:35 AM,71.6,64.4,78,29.86,10.0,Calm,Calm,-,N/A,,Clear,0,2013-09-25 07:35:00
2:55 AM,69.8,66.2,88,29.85,10.0,Calm,Calm,-,N/A,,Clear,0,2013-09-25 07:55:00
3:15 AM,71.6,64.4,78,29.85,10.0,Calm,Calm,-,N/A,,Clear,0,2013-09-25 08:15:00
3:35 AM,69.8,66.2,88,29.85,10.0,Calm,Calm,-,N/A,,Clear,0,2013-09-25 08:35:00
3:55 AM,69.8,66.2,88,29.85,10.0,Calm,Calm,-,N/A,,Clear,0,2013-09-25 08:55:00
4:15 AM,69.8,66.2,88,29.85,10.0,Calm,Calm,-,N/A,,Clear,0,2013-09-25 09:15:00
4:35 AM,68.0,66.2,94,29.85,10.0,Calm,Calm,-,N/A,,Clear,0,2013-09-25 09:35:00
4:55 AM,66.2,64.4,94,29.85,10.0,Calm,Calm,-,N/A,,Clear,0,2013-09-25 09:55:00
5:15 AM,68.0,66.2,94,29.85,10.0,Calm,Calm,-,N/A,,Clear,0,2013-09-25 10:15:00
5:35 AM,68.0,66.2,94,29.85,10.0,Calm,Calm,-,N/A,,Clear,0,2013-09-25 10:35:00
5:55 AM,66.2,66.2,100,29.85,10.0,Calm,Calm,-,N/A,,Clear,0,2013-09-25 10:55:00
6:15 AM,64.4,64.4,100,29.86,10.0,Calm,Calm,-,N/A,,Clear,0,2013-09-25 11:15:00
6:35 AM,66.2,66.2,100,29.86,10.0,Calm,Calm,-,N/A,,Clear,0,2013-09-25 11:35:00
6:55 AM,66.2,66.2,100,29.86,10.0,Calm,Calm,-,N/A,,Clear,0,2013-09-25 11:55:00
7:15 AM,66.2,64.4,94,29.87,10.0,Calm,Calm,-,N/A,,Clear,0,2013-09-25 12:15:00
7:35 AM,66.2,64.4,94,29.87,10.0,Calm,Calm,-,N/A,,Clear,0,2013-09-25 12:35:00
7:55 AM,68.0,66.2,94,29.87,10.0,Calm,Calm,-,N/A,,Clear,0,2013-09-25 12:55:00
8:15 AM,69.8,68.0,94,29.88,9.0,West,4.6,-,N/A,,Clear,270,2013-09-25 13:15:00
8:35 AM,71.6,66.2,83,29.88,10.0,West,4.6,-,N/A,,Clear,280,2013-09-25 13:35:00
8:55 AM,73.4,66.2,78,29.88,10.0,West,6.9,-,N/A,,Clear,280,2013-09-25 13:55:00
9:15 AM,75.2,66.2,73,29.89,10.0,WNW,6.9,-,N/A,,Clear,290,2013-09-25 14:15:00
9:35 AM,77.0,66.2,69,29.89,9.0,WNW,8.1,-,N/A,,Clear,300,2013-09-25 14:35:00
9:55 AM,78.8,66.2,65,29.89,10.0,WNW,6.9,-,N/A,,Clear,300,2013-09-25 14:55:00
10:15 AM,80.6,66.2,61,29.90,10.0,WNW,5.8,-,N/A,,Clear,290,2013-09-25 15:15:00
10:35 AM,82.4,66.2,58,29.90,10.0,West,5.8,-,N/A,,Clear,280,2013-09-25 15:35:00
10:55 AM,84.2,66.2,55,29.90,10.0,West,4.6,-,N/A,,Clear,270,2013-09-25 15:55:00
11:15 AM,86.0,66.2,51,29.90,10.0,West,5.8,-,N/A,,Clear,270,2013-09-25 16:15:00
11:35 AM,86.0,66.2,51,29.90,10.0,West,4.6,-,N/A,,Clear,260,2013-09-25 16:35:00
11:55 AM,89.6,66.2,46,29.90,10.0,WSW,4.6,-,N/A,,Clear,250,2013-09-25 16:55:00
12:15 PM,89.6,64.4,43,29.89,10.0,WSW,3.5,-,N/A,,Clear,250,2013-09-25 17:15:00
12:35 PM,91.4,62.6,38,29.88,10.0,SSW,3.5,-,N/A,,Clear,200,2013-09-25 17:35:00
1:15 PM,93.2,53.6,26,29.87,10.0,Calm,Calm,-,N/A,,Clear,0,2013-09-25 18:15:00
1:35 PM,93.2,50.0,23,29.86,10.0,SW,5.8,-,N/A,,Clear,230,2013-09-25 18:35:00
1:55 PM,93.2,53.6,26,29.85,10.0,WNW,9.2,-,N/A,,Clear,300,2013-09-25 18:55:00
2:15 PM,93.2,53.6,26,29.84,10.0,West,3.5,-,N/A,,Clear,280,2013-09-25 19:15:00
2:35 PM,93.2,53.6,26,29.84,10.0,South,3.5,-,N/A,,Clear,190,2013-09-25 19:35:00
2:55 PM,93.2,55.4,28,29.83,10.0,WNW,5.8,-,N/A,,Clear,300,2013-09-25 19:55:00
3:15 PM,93.2,55.4,28,29.82,10.0,Calm,Calm,-,N/A,,Clear,0,2013-09-25 20:15:00
3:55 PM,95.0,55.4,26,29.81,10.0,SSW,4.6,-,N/A,,Clear,210,2013-09-25 20:55:00
4:15 PM,93.2,55.4,28,29.80,10.0,Calm,Calm,-,N/A,,Clear,0,2013-09-25 21:15:00
4:35 PM,93.2,55.4,28,29.80,10.0,NNW,6.9,-,N/A,,Clear,330,2013-09-25 21:35:00
4:55 PM,93.2,53.6,26,29.80,10.0,NNW,4.6,-,N/A,,Clear,340,2013-09-25 21:55:00
5:15 PM,93.2,53.6,26,29.79,10.0,NNW,6.9,-,N/A,,Clear,340,2013-09-25 22:15:00
5:35 PM,93.2,53.6,26,29.79,10.0,NW,3.5,-,N/A,,Clear,310,2013-09-25 22:35:00
5:55 PM,93.2,53.6,26,29.79,10.0,North,4.6,-,N/A,,Clear,360,2013-09-25 22:55:00
6:15 PM,91.4,53.6,28,29.79,10.0,Calm,Calm,-,N/A,,Clear,0,2013-09-25 23:15:00
6:35 PM,91.4,55.4,29,29.80,10.0,Calm,Calm,-,N/A,,Clear,0,2013-09-25 23:35:00
6:55 PM,89.6,55.4,31,29.80,10.0,Calm,Calm,-,N/A,,Clear,0,2013-09-25 23:55:00
7:15 PM,89.6,59.0,36,29.80,10.0,ESE,3.5,-,N/A,,Clear,110,2013-09-26 00:15:00
7:35 PM,84.2,60.8,45,29.80,10.0,Calm,Calm,-,N/A,,Clear,0,2013-09-26 00:35:00
7:55 PM,84.2,57.2,40,29.80,10.0,Calm,Calm,-,N/A,,Clear,0,2013-09-26 00:55:00
8:15 PM,84.2,59.0,42,29.81,10.0,Calm,Calm,-,N/A,,Clear,0,2013-09-26 01:15:00
8:35 PM,80.6,62.6,54,29.81,10.0,SE,4.6,-,N/A,,Clear,140,2013-09-26 01:35:00
8:55 PM,78.8,64.4,61,29.82,10.0,SSE,11.5,-,N/A,,Clear,160,2013-09-26 01:55:00
9:15 PM,78.8,66.2,65,29.83,10.0,South,9.2,-,N/A,,Clear,170,2013-09-26 02:15:00
9:35 PM,77.0,66.2,69,29.83,10.0,SSE,6.9,-,N/A,,Clear,160,2013-09-26 02:35:00
9:55 PM,75.2,66.2,73,29.83,10.0,SSE,6.9,-,N/A,,Clear,150,2013-09-26 02:55:00
10:15 PM,75.2,66.2,73,29.84,10.0,SE,6.9,-,N/A,,Partly Cloudy,140,2013-09-26 03:15:00
10:35 PM,73.4,66.2,78,29.84,10.0,SSE,4.6,-,N/A,,Partly Cloudy,160,2013-09-26 03:35:00
10:55 PM,73.4,66.2,78,29.84,10.0,SSE,3.5,-,N/A,,Scattered Clouds,150,2013-09-26 03:55:00
11:15 PM,73.4,66.2,78,29.84,10.0,SE,3.5,-,N/A,,Mostly Cloudy,130,2013-09-26 04:15:00
11:35 PM,73.4,66.2,78,29.84,10.0,South,4.6,-,N/A,,Mostly Cloudy,170,2013-09-26 04:35:00
11:55 PM,75.2,66.2,73,29.84,10.0,South,5.8,-,N/A,,Mostly Cloudy,180,2013-09-26 04:55:00